sensor_id;sensor_type;location;lat;lon;timestamp;P1;durP1;ratioP1;P2;durP2;ratioP2
60086;SDS011;45960;53.630;55.972;2023-09-12T00:01:03;13.32;;;6.60;;
60086;SDS011;45960;53.630;55.972;2023-09-12T00:02:06;9.45;;;6.47;;
60086;SDS011;45960;53.630;55.972;2023-09-12T00:03:07;8.95;;;6.80;;
60086;SDS011;45960;53.630;55.972;2023-09-12T00:04:08;11.25;;;6.85;;
60086;SDS011;45960;53.630;55.972;2023-09-12T00:05:09;9.55;;;6.05;;
60086;SDS011;45960;53.630;55.972;2023-09-12T00:06:10;12.15;;;5.95;;
60086;SDS011;45960;53.630;55.972;2023-09-12T00:07:11;8.15;;;5.70;;
60086;SDS011;45960;53.630;55.972;2023-09-12T00:08:12;8.57;;;6.40;;
60086;SDS011;45960;53.630;55.972;2023-09-12T00:09:13;9.57;;;6.93;;
60086;SDS011;45960;53.630;55.972;2023-09-12T00:10:14;10.98;;;7.40;;
60086;SDS011;45960;53.630;55.972;2023-09-12T00:11:15;18.13;;;9.23;;
60086;SDS011;45960;53.630;55.972;2023-09-12T00:12:16;15.88;;;8.48;;
60086;SDS011;45960;53.630;55.972;2023-09-12T00:13:17;12.90;;;8.48;;
60086;SDS011;45960;53.630;55.972;2023-09-12T00:14:18;18.30;;;9.43;;
60086;SDS011;45960;53.630;55.972;2023-09-12T00:15:19;14.60;;;8.60;;
60086;SDS011;45960;53.630;55.972;2023-09-12T00:16:20;14.25;;;9.52;;
60086;SDS011;45960;53.630;55.972;2023-09-12T00:17:21;16.83;;;10.00;;
60086;SDS011;45960;53.630;55.972;2023-09-12T00:18:22;17.85;;;10.43;;
60086;SDS011;45960;53.630;55.972;2023-09-12T00:19:23;15.20;;;10.43;;
60086;SDS011;45960;53.630;55.972;2023-09-12T00:20:24;15.13;;;10.05;;
60086;SDS011;45960;53.630;55.972;2023-09-12T00:21:25;11.88;;;9.20;;
60086;SDS011;45960;53.630;55.972;2023-09-12T00:22:26;13.40;;;9.48;;
60086;SDS011;45960;53.630;55.972;2023-09-12T00:23:27;15.25;;;9.15;;
60086;SDS011;45960;53.630;55.972;2023-09-12T00:24:28;12.45;;;8.55;;
60086;SDS011;45960;53.630;55.972;2023-09-12T00:25:29;13.85;;;8.13;;
60086;SDS011;45960;53.630;55.972;2023-09-12T00:26:30;11.43;;;7.45;;
60086;SDS011;45960;53.630;55.972;2023-09-12T00:27:31;7.97;;;6.38;;
60086;SDS011;45960;53.630;55.972;2023-09-12T00:28:33;11.85;;;7.40;;
60086;SDS011;45960;53.630;55.972;2023-09-12T00:29:35;11.38;;;6.80;;
60086;SDS011;45960;53.630;55.972;2023-09-12T00:30:36;8.85;;;6.45;;
60086;SDS011;45960;53.630;55.972;2023-09-12T00:31:37;8.40;;;6.88;;
60086;SDS011;45960;53.630;55.972;2023-09-12T00:32:38;12.23;;;7.30;;
60086;SDS011;45960;53.630;55.972;2023-09-12T00:33:39;9.45;;;6.47;;
60086;SDS011;45960;53.630;55.972;2023-09-12T00:34:40;9.32;;;7.25;;
60086;SDS011;45960;53.630;55.972;2023-09-12T00:35:41;10.38;;;6.70;;
60086;SDS011;45960;53.630;55.972;2023-09-12T00:36:42;10.63;;;6.88;;
60086;SDS011;45960;53.630;55.972;2023-09-12T00:37:43;12.30;;;7.45;;
60086;SDS011;45960;53.630;55.972;2023-09-12T00:38:44;9.55;;;7.05;;
60086;SDS011;45960;53.630;55.972;2023-09-12T00:39:45;11.60;;;7.25;;
60086;SDS011;45960;53.630;55.972;2023-09-12T00:40:47;9.30;;;6.70;;
60086;SDS011;45960;53.630;55.972;2023-09-12T00:41:49;11.38;;;7.05;;
60086;SDS011;45960;53.630;55.972;2023-09-12T00:42:50;10.60;;;7.55;;
60086;SDS011;45960;53.630;55.972;2023-09-12T00:43:51;14.35;;;7.50;;
60086;SDS011;45960;53.630;55.972;2023-09-12T00:44:52;10.30;;;7.35;;
60086;SDS011;45960;53.630;55.972;2023-09-12T00:45:53;10.98;;;7.07;;
60086;SDS011;45960;53.630;55.972;2023-09-12T00:46:54;10.32;;;7.05;;
60086;SDS011;45960;53.630;55.972;2023-09-12T00:47:57;10.82;;;7.13;;
60086;SDS011;45960;53.630;55.972;2023-09-12T00:48:59;11.85;;;8.02;;
60086;SDS011;45960;53.630;55.972;2023-09-12T00:50:00;12.43;;;7.60;;
60086;SDS011;45960;53.630;55.972;2023-09-12T00:51:03;11.13;;;7.47;;
60086;SDS011;45960;53.630;55.972;2023-09-12T00:52:06;9.90;;;7.07;;
60086;SDS011;45960;53.630;55.972;2023-09-12T00:53:08;10.95;;;7.45;;
60086;SDS011;45960;53.630;55.972;2023-09-12T00:54:09;9.68;;;7.60;;
60086;SDS011;45960;53.630;55.972;2023-09-12T00:55:11;12.32;;;8.32;;
60086;SDS011;45960;53.630;55.972;2023-09-12T00:56:12;11.68;;;7.95;;
60086;SDS011;45960;53.630;55.972;2023-09-12T00:57:14;10.82;;;7.80;;
60086;SDS011;45960;53.630;55.972;2023-09-12T00:58:15;20.35;;;7.95;;
60086;SDS011;45960;53.630;55.972;2023-09-12T00:59:16;12.65;;;8.70;;
60086;SDS011;45960;53.630;55.972;2023-09-12T01:00:19;14.15;;;7.40;;
60086;SDS011;45960;53.630;55.972;2023-09-12T01:01:21;12.75;;;8.23;;
60086;SDS011;45960;53.630;55.972;2023-09-12T01:02:23;17.65;;;8.70;;
60086;SDS011;45960;53.630;55.972;2023-09-12T01:03:25;11.18;;;8.00;;
60086;SDS011;45960;53.630;55.972;2023-09-12T01:04:26;10.00;;;7.53;;
60086;SDS011;45960;53.630;55.972;2023-09-12T01:05:27;11.88;;;7.68;;
60086;SDS011;45960;53.630;55.972;2023-09-12T01:06:29;9.75;;;7.95;;
60086;SDS011;45960;53.630;55.972;2023-09-12T01:07:34;11.45;;;8.63;;
60086;SDS011;45960;53.630;55.972;2023-09-12T01:08:37;10.02;;;7.90;;
60086;SDS011;45960;53.630;55.972;2023-09-12T01:09:39;13.23;;;9.02;;
60086;SDS011;45960;53.630;55.972;2023-09-12T01:10:41;14.52;;;9.52;;
60086;SDS011;45960;53.630;55.972;2023-09-12T01:11:46;12.68;;;8.93;;
60086;SDS011;45960;53.630;55.972;2023-09-12T01:12:47;14.75;;;9.65;;
60086;SDS011;45960;53.630;55.972;2023-09-12T01:13:49;19.55;;;9.68;;
60086;SDS011;45960;53.630;55.972;2023-09-12T01:14:50;16.13;;;8.70;;
60086;SDS011;45960;53.630;55.972;2023-09-12T01:15:51;13.70;;;9.52;;
60086;SDS011;45960;53.630;55.972;2023-09-12T01:16:52;14.80;;;9.93;;
60086;SDS011;45960;53.630;55.972;2023-09-12T01:17:53;20.77;;;9.82;;
60086;SDS011;45960;53.630;55.972;2023-09-12T01:18:55;14.90;;;10.30;;
60086;SDS011;45960;53.630;55.972;2023-09-12T01:19:56;16.35;;;11.25;;
60086;SDS011;45960;53.630;55.972;2023-09-12T01:23:48;20.35;;;11.27;;
60086;SDS011;45960;53.630;55.972;2023-09-12T01:25:15;18.52;;;10.70;;
60086;SDS011;45960;53.630;55.972;2023-09-12T01:27:28;52.58;;;15.18;;
60086;SDS011;45960;53.630;55.972;2023-09-12T01:28:34;44.28;;;16.83;;
60086;SDS011;45960;53.630;55.972;2023-09-12T01:29:39;46.33;;;17.15;;
60086;SDS011;45960;53.630;55.972;2023-09-12T01:30:42;42.78;;;16.33;;
60086;SDS011;45960;53.630;55.972;2023-09-12T01:31:49;51.72;;;15.90;;
60086;SDS011;45960;53.630;55.972;2023-09-12T01:32:51;58.85;;;18.33;;
60086;SDS011;45960;53.630;55.972;2023-09-12T01:33:56;47.05;;;16.45;;
60086;SDS011;45960;53.630;55.972;2023-09-12T01:34:58;53.15;;;16.27;;
60086;SDS011;45960;53.630;55.972;2023-09-12T01:35:59;42.30;;;17.17;;
60086;SDS011;45960;53.630;55.972;2023-09-12T01:37:00;43.72;;;14.10;;
60086;SDS011;45960;53.630;55.972;2023-09-12T01:38:01;49.28;;;15.70;;
60086;SDS011;45960;53.630;55.972;2023-09-12T01:39:02;50.78;;;15.32;;
60086;SDS011;45960;53.630;55.972;2023-09-12T01:40:04;36.05;;;13.93;;
60086;SDS011;45960;53.630;55.972;2023-09-12T01:41:06;32.40;;;12.52;;
60086;SDS011;45960;53.630;55.972;2023-09-12T01:42:09;28.42;;;12.43;;
60086;SDS011;45960;53.630;55.972;2023-09-12T01:43:19;39.85;;;12.20;;
60086;SDS011;45960;53.630;55.972;2023-09-12T01:44:24;43.83;;;14.13;;
60086;SDS011;45960;53.630;55.972;2023-09-12T01:45:29;49.92;;;14.57;;
60086;SDS011;45960;53.630;55.972;2023-09-12T01:46:30;47.25;;;15.32;;
60086;SDS011;45960;53.630;55.972;2023-09-12T01:47:34;47.17;;;14.63;;
60086;SDS011;45960;53.630;55.972;2023-09-12T01:48:37;49.15;;;14.57;;
60086;SDS011;45960;53.630;55.972;2023-09-12T01:49:39;42.33;;;13.93;;
60086;SDS011;45960;53.630;55.972;2023-09-12T01:50:43;47.42;;;15.13;;
60086;SDS011;45960;53.630;55.972;2023-09-12T01:51:44;51.65;;;14.18;;
60086;SDS011;45960;53.630;55.972;2023-09-12T01:52:46;47.00;;;13.93;;
60086;SDS011;45960;53.630;55.972;2023-09-12T01:53:49;41.70;;;14.98;;
60086;SDS011;45960;53.630;55.972;2023-09-12T01:54:51;43.35;;;14.63;;
60086;SDS011;45960;53.630;55.972;2023-09-12T01:55:53;39.17;;;14.77;;
60086;SDS011;45960;53.630;55.972;2023-09-12T01:56:56;45.95;;;14.20;;
60086;SDS011;45960;53.630;55.972;2023-09-12T01:57:59;46.80;;;14.18;;
60086;SDS011;45960;53.630;55.972;2023-09-12T01:59:00;39.80;;;14.30;;
60086;SDS011;45960;53.630;55.972;2023-09-12T02:00:03;43.05;;;14.48;;
60086;SDS011;45960;53.630;55.972;2023-09-12T02:01:06;40.13;;;14.63;;
60086;SDS011;45960;53.630;55.972;2023-09-12T02:02:08;28.48;;;13.25;;
60086;SDS011;45960;53.630;55.972;2023-09-12T02:03:09;29.42;;;13.23;;
60086;SDS011;45960;53.630;55.972;2023-09-12T02:04:10;25.70;;;12.73;;
60086;SDS011;45960;53.630;55.972;2023-09-12T02:05:18;30.67;;;13.93;;
60086;SDS011;45960;53.630;55.972;2023-09-12T02:06:22;30.25;;;13.40;;
60086;SDS011;45960;53.630;55.972;2023-09-12T02:07:23;30.52;;;13.05;;
60086;SDS011;45960;53.630;55.972;2023-09-12T02:08:27;24.90;;;13.02;;
60086;SDS011;45960;53.630;55.972;2023-09-12T02:09:28;16.23;;;11.85;;
60086;SDS011;45960;53.630;55.972;2023-09-12T02:10:29;24.52;;;12.77;;
60086;SDS011;45960;53.630;55.972;2023-09-12T02:11:30;24.80;;;12.50;;
60086;SDS011;45960;53.630;55.972;2023-09-12T02:12:31;29.23;;;13.13;;
60086;SDS011;45960;53.630;55.972;2023-09-12T02:13:32;33.20;;;14.43;;
60086;SDS011;45960;53.630;55.972;2023-09-12T02:14:33;41.63;;;15.25;;
60086;SDS011;45960;53.630;55.972;2023-09-12T02:15:35;39.88;;;14.75;;
60086;SDS011;45960;53.630;55.972;2023-09-12T02:16:37;46.88;;;15.90;;
60086;SDS011;45960;53.630;55.972;2023-09-12T02:17:40;62.33;;;17.23;;
60086;SDS011;45960;53.630;55.972;2023-09-12T02:20:02;53.88;;;17.13;;
60086;SDS011;45960;53.630;55.972;2023-09-12T02:21:05;55.17;;;17.60;;
60086;SDS011;45960;53.630;55.972;2023-09-12T02:22:07;57.72;;;16.42;;
60086;SDS011;45960;53.630;55.972;2023-09-12T02:23:08;58.70;;;16.67;;
60086;SDS011;45960;53.630;55.972;2023-09-12T02:24:09;54.65;;;17.17;;
60086;SDS011;45960;53.630;55.972;2023-09-12T02:25:10;54.55;;;17.30;;
60086;SDS011;45960;53.630;55.972;2023-09-12T02:26:11;49.60;;;17.73;;
60086;SDS011;45960;53.630;55.972;2023-09-12T02:27:12;56.78;;;16.88;;
60086;SDS011;45960;53.630;55.972;2023-09-12T02:28:13;54.58;;;18.15;;
60086;SDS011;45960;53.630;55.972;2023-09-12T02:29:14;63.17;;;18.17;;
60086;SDS011;45960;53.630;55.972;2023-09-12T02:30:15;68.10;;;17.73;;
60086;SDS011;45960;53.630;55.972;2023-09-12T02:31:16;72.43;;;18.90;;
60086;SDS011;45960;53.630;55.972;2023-09-12T02:32:17;82.70;;;18.98;;
60086;SDS011;45960;53.630;55.972;2023-09-12T02:33:18;71.65;;;17.92;;
60086;SDS011;45960;53.630;55.972;2023-09-12T02:34:19;66.75;;;18.58;;
60086;SDS011;45960;53.630;55.972;2023-09-12T02:35:20;66.38;;;19.63;;
60086;SDS011;45960;53.630;55.972;2023-09-12T02:36:21;60.33;;;17.23;;
60086;SDS011;45960;53.630;55.972;2023-09-12T02:37:22;55.47;;;15.65;;
60086;SDS011;45960;53.630;55.972;2023-09-12T02:38:23;43.70;;;15.07;;
60086;SDS011;45960;53.630;55.972;2023-09-12T02:39:24;41.95;;;15.38;;
60086;SDS011;45960;53.630;55.972;2023-09-12T02:40:25;46.80;;;15.15;;
60086;SDS011;45960;53.630;55.972;2023-09-12T02:41:26;44.67;;;14.75;;
60086;SDS011;45960;53.630;55.972;2023-09-12T02:42:27;30.77;;;13.57;;
60086;SDS011;45960;53.630;55.972;2023-09-12T02:43:28;33.17;;;13.43;;
60086;SDS011;45960;53.630;55.972;2023-09-12T02:44:31;35.05;;;13.48;;
60086;SDS011;45960;53.630;55.972;2023-09-12T02:45:31;38.80;;;14.43;;
60086;SDS011;45960;53.630;55.972;2023-09-12T02:46:33;39.45;;;14.25;;
60086;SDS011;45960;53.630;55.972;2023-09-12T02:47:34;46.40;;;14.35;;
60086;SDS011;45960;53.630;55.972;2023-09-12T02:48:35;46.67;;;14.88;;
60086;SDS011;45960;53.630;55.972;2023-09-12T02:49:36;52.38;;;15.15;;
60086;SDS011;45960;53.630;55.972;2023-09-12T02:50:37;41.85;;;14.68;;
60086;SDS011;45960;53.630;55.972;2023-09-12T02:51:38;39.70;;;12.80;;
60086;SDS011;45960;53.630;55.972;2023-09-12T02:52:40;43.45;;;13.18;;
60086;SDS011;45960;53.630;55.972;2023-09-12T02:53:41;39.38;;;13.13;;
60086;SDS011;45960;53.630;55.972;2023-09-12T02:54:42;41.08;;;11.32;;
60086;SDS011;45960;53.630;55.972;2023-09-12T02:55:43;29.77;;;11.38;;
60086;SDS011;45960;53.630;55.972;2023-09-12T02:56:44;40.47;;;12.35;;
60086;SDS011;45960;53.630;55.972;2023-09-12T02:57:45;30.65;;;12.18;;
60086;SDS011;45960;53.630;55.972;2023-09-12T02:58:47;33.60;;;12.07;;
60086;SDS011;45960;53.630;55.972;2023-09-12T02:59:49;36.13;;;11.35;;
60086;SDS011;45960;53.630;55.972;2023-09-12T03:00:50;25.75;;;10.70;;
60086;SDS011;45960;53.630;55.972;2023-09-12T03:01:54;26.67;;;9.77;;
60086;SDS011;45960;53.630;55.972;2023-09-12T03:02:55;24.73;;;9.50;;
60086;SDS011;45960;53.630;55.972;2023-09-12T03:03:57;28.70;;;9.27;;
60086;SDS011;45960;53.630;55.972;2023-09-12T03:04:58;26.38;;;9.23;;
60086;SDS011;45960;53.630;55.972;2023-09-12T03:06:00;23.15;;;9.23;;
60086;SDS011;45960;53.630;55.972;2023-09-12T03:07:04;26.05;;;9.00;;
60086;SDS011;45960;53.630;55.972;2023-09-12T03:08:05;23.00;;;8.70;;
60086;SDS011;45960;53.630;55.972;2023-09-12T03:09:06;24.52;;;9.02;;
60086;SDS011;45960;53.630;55.972;2023-09-12T03:10:07;22.55;;;8.82;;
60086;SDS011;45960;53.630;55.972;2023-09-12T03:11:09;16.23;;;7.85;;
60086;SDS011;45960;53.630;55.972;2023-09-12T03:12:10;17.40;;;8.55;;
60086;SDS011;45960;53.630;55.972;2023-09-12T03:13:12;24.27;;;8.73;;
60086;SDS011;45960;53.630;55.972;2023-09-12T03:14:13;22.17;;;9.45;;
60086;SDS011;45960;53.630;55.972;2023-09-12T03:15:14;33.75;;;10.40;;
60086;SDS011;45960;53.630;55.972;2023-09-12T03:16:15;26.85;;;10.57;;
60086;SDS011;45960;53.630;55.972;2023-09-12T03:17:16;27.02;;;10.68;;
60086;SDS011;45960;53.630;55.972;2023-09-12T03:18:17;34.42;;;11.30;;
60086;SDS011;45960;53.630;55.972;2023-09-12T03:19:18;31.27;;;10.07;;
60086;SDS011;45960;53.630;55.972;2023-09-12T03:20:19;24.65;;;10.73;;
60086;SDS011;45960;53.630;55.972;2023-09-12T03:21:20;28.33;;;10.77;;
60086;SDS011;45960;53.630;55.972;2023-09-12T03:22:21;31.52;;;11.80;;
60086;SDS011;45960;53.630;55.972;2023-09-12T03:23:22;25.70;;;11.13;;
60086;SDS011;45960;53.630;55.972;2023-09-12T03:24:23;28.02;;;12.25;;
60086;SDS011;45960;53.630;55.972;2023-09-12T03:25:25;30.40;;;11.60;;
60086;SDS011;45960;53.630;55.972;2023-09-12T03:26:26;29.08;;;12.55;;
60086;SDS011;45960;53.630;55.972;2023-09-12T03:27:27;25.80;;;11.75;;
60086;SDS011;45960;53.630;55.972;2023-09-12T03:28:28;27.95;;;12.63;;
60086;SDS011;45960;53.630;55.972;2023-09-12T03:29:30;30.85;;;11.95;;
60086;SDS011;45960;53.630;55.972;2023-09-12T03:30:34;25.23;;;11.43;;
60086;SDS011;45960;53.630;55.972;2023-09-12T03:31:37;25.25;;;11.45;;
60086;SDS011;45960;53.630;55.972;2023-09-12T03:32:38;23.65;;;12.38;;
60086;SDS011;45960;53.630;55.972;2023-09-12T03:33:40;24.23;;;11.57;;
60086;SDS011;45960;53.630;55.972;2023-09-12T03:34:42;20.52;;;10.93;;
60086;SDS011;45960;53.630;55.972;2023-09-12T03:35:43;16.35;;;8.00;;
60086;SDS011;45960;53.630;55.972;2023-09-12T03:36:45;25.10;;;11.18;;
60086;SDS011;45960;53.630;55.972;2023-09-12T03:37:46;18.55;;;9.68;;
60086;SDS011;45960;53.630;55.972;2023-09-12T03:38:47;20.45;;;10.52;;
60086;SDS011;45960;53.630;55.972;2023-09-12T03:39:48;20.67;;;10.43;;
60086;SDS011;45960;53.630;55.972;2023-09-12T03:40:49;20.98;;;11.65;;
60086;SDS011;45960;53.630;55.972;2023-09-12T03:41:50;19.95;;;10.75;;
60086;SDS011;45960;53.630;55.972;2023-09-12T03:42:51;18.85;;;10.63;;
60086;SDS011;45960;53.630;55.972;2023-09-12T03:43:53;18.23;;;10.43;;
60086;SDS011;45960;53.630;55.972;2023-09-12T03:44:55;24.80;;;11.75;;
60086;SDS011;45960;53.630;55.972;2023-09-12T03:45:56;20.88;;;11.35;;
60086;SDS011;45960;53.630;55.972;2023-09-12T03:46:57;19.30;;;11.27;;
60086;SDS011;45960;53.630;55.972;2023-09-12T03:47:59;20.83;;;11.55;;
60086;SDS011;45960;53.630;55.972;2023-09-12T03:49:00;17.77;;;10.25;;
60086;SDS011;45960;53.630;55.972;2023-09-12T03:50:01;18.52;;;10.63;;
60086;SDS011;45960;53.630;55.972;2023-09-12T03:51:03;17.38;;;10.00;;
60086;SDS011;45960;53.630;55.972;2023-09-12T03:52:07;14.23;;;9.20;;
60086;SDS011;45960;53.630;55.972;2023-09-12T03:53:08;15.10;;;8.70;;
60086;SDS011;45960;53.630;55.972;2023-09-12T03:54:09;23.02;;;8.20;;
60086;SDS011;45960;53.630;55.972;2023-09-12T03:55:10;12.13;;;7.30;;
60086;SDS011;45960;53.630;55.972;2023-09-12T03:56:11;14.18;;;8.13;;
60086;SDS011;45960;53.630;55.972;2023-09-12T03:57:13;13.35;;;8.20;;
60086;SDS011;45960;53.630;55.972;2023-09-12T03:58:15;14.52;;;8.23;;
60086;SDS011;45960;53.630;55.972;2023-09-12T03:59:16;10.80;;;6.95;;
60086;SDS011;45960;53.630;55.972;2023-09-12T04:00:17;11.63;;;6.93;;
60086;SDS011;45960;53.630;55.972;2023-09-12T04:01:21;10.02;;;7.10;;
60086;SDS011;45960;53.630;55.972;2023-09-12T04:02:22;11.57;;;6.95;;
60086;SDS011;45960;53.630;55.972;2023-09-12T04:03:24;9.10;;;5.85;;
60086;SDS011;45960;53.630;55.972;2023-09-12T04:04:25;9.00;;;6.88;;
60086;SDS011;45960;53.630;55.972;2023-09-12T04:05:26;8.23;;;5.93;;
60086;SDS011;45960;53.630;55.972;2023-09-12T04:06:27;8.13;;;5.88;;
60086;SDS011;45960;53.630;55.972;2023-09-12T04:07:28;9.18;;;6.68;;
60086;SDS011;45960;53.630;55.972;2023-09-12T04:08:29;9.32;;;6.30;;
60086;SDS011;45960;53.630;55.972;2023-09-12T04:09:31;9.93;;;6.28;;
60086;SDS011;45960;53.630;55.972;2023-09-12T04:10:32;6.47;;;5.78;;
60086;SDS011;45960;53.630;55.972;2023-09-12T04:11:33;8.55;;;5.80;;
60086;SDS011;45960;53.630;55.972;2023-09-12T04:12:35;12.13;;;6.07;;
60086;SDS011;45960;53.630;55.972;2023-09-12T04:13:35;6.85;;;5.55;;
60086;SDS011;45960;53.630;55.972;2023-09-12T04:14:36;11.80;;;5.68;;
60086;SDS011;45960;53.630;55.972;2023-09-12T04:15:38;8.00;;;5.30;;
60086;SDS011;45960;53.630;55.972;2023-09-12T04:16:39;9.05;;;5.80;;
60086;SDS011;45960;53.630;55.972;2023-09-12T04:17:40;10.55;;;5.75;;
60086;SDS011;45960;53.630;55.972;2023-09-12T04:18:41;9.18;;;5.68;;
60086;SDS011;45960;53.630;55.972;2023-09-12T04:19:42;8.90;;;5.13;;
60086;SDS011;45960;53.630;55.972;2023-09-12T04:20:43;7.30;;;5.20;;
60086;SDS011;45960;53.630;55.972;2023-09-12T04:21:44;8.85;;;5.35;;
60086;SDS011;45960;53.630;55.972;2023-09-12T04:22:45;7.18;;;5.53;;
60086;SDS011;45960;53.630;55.972;2023-09-12T04:23:47;6.80;;;5.15;;
60086;SDS011;45960;53.630;55.972;2023-09-12T04:24:48;9.05;;;5.32;;
60086;SDS011;45960;53.630;55.972;2023-09-12T04:25:49;6.90;;;4.78;;
60086;SDS011;45960;53.630;55.972;2023-09-12T04:26:50;7.65;;;5.20;;
60086;SDS011;45960;53.630;55.972;2023-09-12T04:27:51;5.38;;;4.40;;
60086;SDS011;45960;53.630;55.972;2023-09-12T04:28:52;6.43;;;5.22;;
60086;SDS011;45960;53.630;55.972;2023-09-12T04:29:53;6.97;;;4.68;;
60086;SDS011;45960;53.630;55.972;2023-09-12T04:31:00;9.40;;;4.97;;
60086;SDS011;45960;53.630;55.972;2023-09-12T04:32:03;9.82;;;4.55;;
60086;SDS011;45960;53.630;55.972;2023-09-12T04:33:04;5.95;;;4.90;;
60086;SDS011;45960;53.630;55.972;2023-09-12T04:34:05;8.65;;;4.38;;
60086;SDS011;45960;53.630;55.972;2023-09-12T04:35:07;6.00;;;4.85;;
60086;SDS011;45960;53.630;55.972;2023-09-12T04:36:08;8.50;;;5.70;;
60086;SDS011;45960;53.630;55.972;2023-09-12T04:37:09;10.23;;;5.18;;
60086;SDS011;45960;53.630;55.972;2023-09-12T04:38:10;6.53;;;4.80;;
60086;SDS011;45960;53.630;55.972;2023-09-12T04:39:11;5.97;;;4.90;;
60086;SDS011;45960;53.630;55.972;2023-09-12T04:40:12;6.07;;;5.00;;
60086;SDS011;45960;53.630;55.972;2023-09-12T04:41:13;6.38;;;4.57;;
60086;SDS011;45960;53.630;55.972;2023-09-12T04:42:17;7.63;;;4.70;;
60086;SDS011;45960;53.630;55.972;2023-09-12T04:43:18;8.70;;;5.43;;
60086;SDS011;45960;53.630;55.972;2023-09-12T04:44:19;8.38;;;4.90;;
60086;SDS011;45960;53.630;55.972;2023-09-12T04:45:20;9.35;;;4.82;;
60086;SDS011;45960;53.630;55.972;2023-09-12T04:46:21;6.55;;;4.60;;
60086;SDS011;45960;53.630;55.972;2023-09-12T04:47:22;6.38;;;4.53;;
60086;SDS011;45960;53.630;55.972;2023-09-12T04:48:24;7.07;;;4.40;;
60086;SDS011;45960;53.630;55.972;2023-09-12T04:49:25;6.80;;;4.78;;
60086;SDS011;45960;53.630;55.972;2023-09-12T04:50:26;6.35;;;4.88;;
60086;SDS011;45960;53.630;55.972;2023-09-12T04:51:27;6.03;;;4.63;;
60086;SDS011;45960;53.630;55.972;2023-09-12T04:52:28;5.78;;;4.50;;
60086;SDS011;45960;53.630;55.972;2023-09-12T04:53:29;5.63;;;4.20;;
60086;SDS011;45960;53.630;55.972;2023-09-12T04:54:37;7.05;;;4.45;;
60086;SDS011;45960;53.630;55.972;2023-09-12T04:55:38;5.60;;;4.00;;
60086;SDS011;45960;53.630;55.972;2023-09-12T04:56:39;6.25;;;4.32;;
60086;SDS011;45960;53.630;55.972;2023-09-12T04:57:41;5.68;;;4.68;;
60086;SDS011;45960;53.630;55.972;2023-09-12T04:58:42;5.80;;;4.70;;
60086;SDS011;45960;53.630;55.972;2023-09-12T04:59:43;8.88;;;4.40;;
60086;SDS011;45960;53.630;55.972;2023-09-12T05:00:44;5.18;;;3.95;;
60086;SDS011;45960;53.630;55.972;2023-09-12T05:01:46;7.03;;;5.10;;
60086;SDS011;45960;53.630;55.972;2023-09-12T05:02:48;4.93;;;4.22;;
60086;SDS011;45960;53.630;55.972;2023-09-12T05:03:49;6.25;;;4.43;;
60086;SDS011;45960;53.630;55.972;2023-09-12T05:04:51;6.22;;;4.43;;
60086;SDS011;45960;53.630;55.972;2023-09-12T05:05:52;6.53;;;4.32;;
60086;SDS011;45960;53.630;55.972;2023-09-12T05:06:53;5.85;;;4.25;;
60086;SDS011;45960;53.630;55.972;2023-09-12T05:07:54;5.03;;;4.10;;
60086;SDS011;45960;53.630;55.972;2023-09-12T05:08:55;7.28;;;4.80;;
60086;SDS011;45960;53.630;55.972;2023-09-12T05:09:56;7.97;;;4.72;;
60086;SDS011;45960;53.630;55.972;2023-09-12T05:10:57;5.18;;;4.18;;
60086;SDS011;45960;53.630;55.972;2023-09-12T05:11:58;9.07;;;4.45;;
60086;SDS011;45960;53.630;55.972;2023-09-12T05:12:59;10.00;;;5.00;;
60086;SDS011;45960;53.630;55.972;2023-09-12T05:14:00;8.02;;;5.22;;
60086;SDS011;45960;53.630;55.972;2023-09-12T05:15:04;6.07;;;4.72;;
60086;SDS011;45960;53.630;55.972;2023-09-12T05:16:06;5.50;;;4.63;;
60086;SDS011;45960;53.630;55.972;2023-09-12T05:17:07;10.13;;;5.32;;
60086;SDS011;45960;53.630;55.972;2023-09-12T05:18:08;9.00;;;4.57;;
60086;SDS011;45960;53.630;55.972;2023-09-12T05:19:10;8.93;;;4.85;;
60086;SDS011;45960;53.630;55.972;2023-09-12T05:20:12;7.38;;;4.53;;
60086;SDS011;45960;53.630;55.972;2023-09-12T05:21:13;7.32;;;5.13;;
60086;SDS011;45960;53.630;55.972;2023-09-12T05:22:14;7.10;;;4.47;;
60086;SDS011;45960;53.630;55.972;2023-09-12T05:23:15;8.50;;;5.03;;
60086;SDS011;45960;53.630;55.972;2023-09-12T05:24:17;8.80;;;4.90;;
60086;SDS011;45960;53.630;55.972;2023-09-12T05:25:18;6.50;;;5.03;;
60086;SDS011;45960;53.630;55.972;2023-09-12T05:26:19;6.45;;;4.45;;
60086;SDS011;45960;53.630;55.972;2023-09-12T05:27:20;9.15;;;4.32;;
60086;SDS011;45960;53.630;55.972;2023-09-12T05:28:21;6.25;;;4.53;;
60086;SDS011;45960;53.630;55.972;2023-09-12T05:29:24;9.15;;;4.10;;
60086;SDS011;45960;53.630;55.972;2023-09-12T05:30:25;6.30;;;3.88;;
60086;SDS011;45960;53.630;55.972;2023-09-12T05:31:26;9.30;;;4.30;;
60086;SDS011;45960;53.630;55.972;2023-09-12T05:32:27;5.22;;;4.07;;
60086;SDS011;45960;53.630;55.972;2023-09-12T05:33:29;7.95;;;4.50;;
60086;SDS011;45960;53.630;55.972;2023-09-12T05:34:30;7.30;;;4.40;;
60086;SDS011;45960;53.630;55.972;2023-09-12T05:35:31;7.63;;;3.83;;
60086;SDS011;45960;53.630;55.972;2023-09-12T05:36:32;5.57;;;3.85;;
60086;SDS011;45960;53.630;55.972;2023-09-12T05:37:33;8.55;;;4.10;;
60086;SDS011;45960;53.630;55.972;2023-09-12T05:38:34;5.50;;;4.20;;
60086;SDS011;45960;53.630;55.972;2023-09-12T05:39:35;5.57;;;3.90;;
60086;SDS011;45960;53.630;55.972;2023-09-12T05:40:36;5.72;;;4.07;;
60086;SDS011;45960;53.630;55.972;2023-09-12T05:41:38;4.00;;;3.60;;
60086;SDS011;45960;53.630;55.972;2023-09-12T05:42:39;5.60;;;4.15;;
60086;SDS011;45960;53.630;55.972;2023-09-12T05:43:39;6.68;;;4.22;;
60086;SDS011;45960;53.630;55.972;2023-09-12T05:44:41;7.43;;;4.25;;
60086;SDS011;45960;53.630;55.972;2023-09-12T05:45:43;6.90;;;3.80;;
60086;SDS011;45960;53.630;55.972;2023-09-12T05:46:45;6.93;;;4.13;;
60086;SDS011;45960;53.630;55.972;2023-09-12T05:47:47;9.57;;;4.45;;
60086;SDS011;45960;53.630;55.972;2023-09-12T05:48:49;10.52;;;4.10;;
60086;SDS011;45960;53.630;55.972;2023-09-12T05:49:50;5.55;;;3.78;;
60086;SDS011;45960;53.630;55.972;2023-09-12T05:50:51;13.18;;;3.80;;
60086;SDS011;45960;53.630;55.972;2023-09-12T05:51:52;8.93;;;3.85;;
60086;SDS011;45960;53.630;55.972;2023-09-12T05:52:53;3.95;;;3.35;;
60086;SDS011;45960;53.630;55.972;2023-09-12T05:53:54;6.57;;;3.90;;
60086;SDS011;45960;53.630;55.972;2023-09-12T05:54:55;5.75;;;3.45;;
60086;SDS011;45960;53.630;55.972;2023-09-12T05:55:56;5.25;;;3.83;;
60086;SDS011;45960;53.630;55.972;2023-09-12T05:56:57;8.73;;;3.92;;
60086;SDS011;45960;53.630;55.972;2023-09-12T05:57:58;5.38;;;3.72;;
60086;SDS011;45960;53.630;55.972;2023-09-12T05:59:00;5.35;;;4.25;;
60086;SDS011;45960;53.630;55.972;2023-09-12T06:00:01;6.78;;;3.63;;
60086;SDS011;45960;53.630;55.972;2023-09-12T06:01:13;5.13;;;3.63;;
60086;SDS011;45960;53.630;55.972;2023-09-12T06:02:15;4.07;;;3.38;;
60086;SDS011;45960;53.630;55.972;2023-09-12T06:03:16;4.93;;;3.25;;
60086;SDS011;45960;53.630;55.972;2023-09-12T06:04:17;4.20;;;3.75;;
60086;SDS011;45960;53.630;55.972;2023-09-12T06:05:18;4.47;;;3.17;;
60086;SDS011;45960;53.630;55.972;2023-09-12T06:06:19;7.25;;;3.65;;